Hovedside
METAR-TAF:

METAR-TAF

Lufthavner :

Torsby, Sverige

breddegrad: 60-09-17N, lengdegrad: 12-59-40E, høyde over havet: 120 m

Gjeldene værobservasjon

Denne rapporten ble laget for 27 minutter siden, klokken 18:50 UTC
Vind 7 kt fra Sørvest
Temperatur 23°C
Luftfuktighet 57%
Trykk 1015 hPa
Sikt 10 km eller mer

METAR: ESST 131850Z AUTO 22007KT 9999 OVC150/// 23/14 Q1015

Tid: 21:17 (19:17 UTC)


TAF: fraværende

Værobservasjoner og værvarsel for over 4000 flyplasser (METAR- og TAF-rapporter).

Tilgjengelige stasjoner er representert av de røde og gule prikkene på kartet.

Hold musepekeren over prikken for å se navnet på stasjonen.

Klikk så for å se værobservasjoner og -varsler.

For å forandre kartet kan du klikke på den grønne knappen med svart kryss for å zoome inn, på den grønne knappen med strek for å zoome ut, eller på de grønne pilene for å se tilstøtende kart.


METAR-TAF: